createdAt,value
2017-11-17T00:00:51.290Z,99.90
2017-11-17T00:03:19.997Z,99.90
2017-11-17T00:05:47.564Z,99.90
2017-11-17T00:08:15.896Z,99.90
2017-11-17T00:10:43.485Z,99.90
2017-11-17T00:13:11.060Z,99.90
2017-11-17T00:15:38.983Z,99.90
2017-11-17T00:18:06.547Z,99.90
2017-11-17T00:20:34.132Z,99.90
2017-11-17T00:23:01.701Z,99.90
2017-11-17T00:25:32.015Z,99.90
2017-11-17T00:27:59.709Z,99.90
2017-11-17T00:30:28.960Z,99.90
2017-11-17T00:32:56.542Z,99.90
2017-11-17T00:35:24.148Z,99.90
2017-11-17T00:37:51.716Z,99.90
2017-11-17T00:40:19.333Z,99.90
2017-11-17T00:42:46.928Z,99.90
2017-11-17T00:45:14.491Z,99.90
2017-11-17T00:47:42.115Z,99.90
2017-11-17T00:50:09.680Z,99.90
2017-11-17T00:52:37.268Z,99.90
2017-11-17T00:55:05.601Z,99.90
2017-11-17T00:57:33.204Z,99.90
2017-11-17T01:00:01.531Z,99.90
2017-11-17T01:02:31.557Z,99.90
2017-11-17T01:04:59.144Z,99.90
2017-11-17T01:07:26.711Z,99.90
2017-11-17T01:09:55.069Z,99.90
2017-11-17T01:12:22.632Z,99.90
2017-11-17T01:14:50.230Z,99.90
2017-11-17T01:17:17.809Z,99.90
2017-11-17T01:19:45.419Z,99.90
2017-11-17T01:22:12.992Z,99.90
2017-11-17T01:24:41.663Z,99.90
2017-11-17T01:27:09.236Z,99.90
2017-11-17T01:29:37.578Z,99.90
2017-11-17T01:32:05.172Z,99.90
2017-11-17T01:34:32.775Z,99.90
2017-11-17T01:37:00.336Z,99.90
2017-11-17T01:39:28.829Z,99.90
2017-11-17T01:41:56.417Z,99.90
2017-11-17T01:44:24.023Z,99.90
2017-11-17T01:46:52.373Z,99.90
2017-11-17T01:49:19.932Z,99.90
2017-11-17T01:51:48.512Z,99.90
2017-11-17T01:54:16.076Z,99.90
2017-11-17T01:56:43.672Z,99.90
2017-11-17T01:59:11.260Z,99.90
2017-11-17T02:01:38.863Z,99.90
2017-11-17T02:04:07.272Z,99.90
2017-11-17T02:06:35.599Z,99.90
2017-11-17T02:09:03.212Z,99.90
2017-11-17T02:11:32.583Z,99.90
2017-11-17T02:14:00.303Z,99.90
2017-11-17T02:16:28.179Z,99.90
2017-11-17T02:18:56.043Z,99.90
2017-11-17T02:21:24.016Z,99.90
2017-11-17T02:23:51.609Z,99.90
2017-11-17T02:26:19.977Z,99.90
2017-11-17T02:28:47.589Z,99.90
2017-11-17T02:31:15.158Z,99.90
2017-11-17T02:33:42.730Z,99.90
2017-11-17T02:36:10.326Z,99.90
2017-11-17T02:38:39.007Z,99.90
2017-11-17T02:41:06.605Z,99.90
2017-11-17T02:43:34.952Z,99.90
2017-11-17T02:46:02.559Z,99.90
2017-11-17T02:48:31.289Z,99.90
2017-11-17T02:50:58.877Z,99.90
2017-11-17T02:53:26.448Z,99.90
2017-11-17T02:55:55.022Z,99.90
2017-11-17T02:58:22.594Z,99.90
2017-11-17T03:00:50.937Z,99.90
2017-11-17T03:03:19.464Z,99.90
2017-11-17T03:05:47.801Z,99.90
2017-11-17T03:08:15.406Z,99.90
2017-11-17T03:10:43.763Z,99.90
2017-11-17T03:13:11.365Z,99.90
2017-11-17T03:15:38.932Z,99.90
2017-11-17T03:18:06.525Z,99.90
2017-11-17T03:20:34.102Z,99.90
2017-11-17T03:23:01.706Z,99.90
2017-11-17T03:25:31.653Z,99.90
2017-11-17T03:27:59.249Z,99.90
2017-11-17T03:30:26.822Z,99.90
2017-11-17T03:32:55.274Z,99.90
2017-11-17T03:35:22.849Z,99.90
2017-11-17T03:37:50.672Z,99.90
2017-11-17T03:40:18.245Z,99.90
2017-11-17T03:42:45.814Z,99.90
2017-11-17T03:45:13.409Z,99.90
2017-11-17T03:47:41.749Z,99.90
2017-11-17T03:50:09.341Z,99.90
2017-11-17T03:52:37.678Z,99.90
2017-11-17T03:55:05.278Z,99.90
2017-11-17T03:57:32.848Z,99.90
2017-11-17T04:00:01.213Z,99.90
2017-11-17T04:02:30.797Z,99.90
2017-11-17T04:04:58.413Z,99.90
2017-11-17T04:07:25.985Z,99.90
2017-11-17T04:09:53.552Z,99.90
2017-11-17T04:12:21.148Z,99.90
2017-11-17T04:14:48.717Z,99.90
2017-11-17T04:17:16.309Z,99.90
2017-11-17T04:19:44.644Z,99.90
2017-11-17T04:22:12.240Z,99.90
2017-11-17T04:24:40.606Z,99.90
2017-11-17T04:27:08.238Z,99.90
2017-11-17T04:29:35.812Z,99.90
2017-11-17T04:32:03.802Z,99.90
2017-11-17T04:34:32.674Z,99.90
2017-11-17T04:37:00.250Z,99.90
2017-11-17T04:39:27.859Z,99.90
2017-11-17T04:41:55.484Z,99.90
2017-11-17T04:44:23.850Z,99.90
2017-11-17T04:46:51.425Z,99.90
2017-11-17T04:49:19.892Z,99.90
2017-11-17T04:51:47.464Z,99.90
2017-11-17T04:54:15.325Z,99.90
2017-11-17T04:56:42.989Z,99.90
2017-11-17T04:59:10.557Z,99.90
2017-11-17T05:01:38.925Z,99.90
2017-11-17T05:04:07.593Z,99.90
2017-11-17T05:06:35.529Z,99.90
2017-11-17T05:09:03.101Z,99.90
2017-11-17T05:11:32.621Z,99.90
2017-11-17T05:14:00.220Z,99.90
2017-11-17T05:16:27.789Z,99.90
2017-11-17T05:18:56.161Z,99.90
2017-11-17T05:21:24.534Z,99.90
2017-11-17T05:23:52.873Z,99.90
2017-11-17T05:26:20.472Z,99.90
2017-11-17T05:28:48.040Z,99.90
2017-11-17T05:31:16.413Z,99.90
2017-11-17T05:33:43.988Z,99.90
2017-11-17T05:36:12.352Z,99.90
2017-11-17T05:38:39.930Z,99.90
2017-11-17T05:41:08.295Z,99.90
2017-11-17T05:43:36.642Z,99.90
2017-11-17T05:46:04.238Z,99.90
2017-11-17T05:48:33.612Z,99.90
2017-11-17T05:51:01.211Z,99.90
2017-11-17T05:53:29.545Z,99.90
2017-11-17T05:55:57.142Z,99.90
2017-11-17T05:58:25.485Z,99.90
2017-11-17T06:00:53.078Z,99.90
2017-11-17T06:03:20.646Z,99.90
2017-11-17T06:05:49.013Z,99.90
2017-11-17T06:08:16.589Z,99.90
2017-11-17T06:10:44.944Z,99.90
2017-11-17T06:13:12.617Z,99.90
2017-11-17T06:15:41.725Z,99.90
2017-11-17T06:18:10.066Z,99.90
2017-11-17T06:20:37.671Z,99.90
2017-11-17T06:23:06.013Z,99.90
2017-11-17T06:25:35.031Z,99.90
2017-11-17T06:28:02.597Z,99.90
2017-11-17T06:30:32.669Z,99.90
2017-11-17T06:33:00.271Z,99.90
2017-11-17T06:35:27.844Z,99.90
2017-11-17T06:37:56.206Z,99.90
2017-11-17T06:40:23.770Z,99.90
2017-11-17T06:42:51.433Z,99.90
2017-11-17T06:45:19.017Z,99.90
2017-11-17T06:47:47.381Z,99.90
2017-11-17T06:50:15.721Z,99.90
2017-11-17T06:52:43.286Z,99.90
2017-11-17T06:55:10.881Z,99.90
2017-11-17T06:57:39.214Z,99.90
2017-11-17T07:00:06.809Z,99.90
2017-11-17T07:02:34.377Z,99.90
2017-11-17T07:05:02.742Z,99.90
2017-11-17T07:07:31.856Z,99.90
2017-11-17T07:10:00.226Z,99.90
2017-11-17T07:12:27.891Z,99.90
2017-11-17T07:14:55.506Z,99.90
2017-11-17T07:17:23.073Z,99.90
2017-11-17T07:19:50.641Z,99.90
2017-11-17T07:22:18.233Z,99.90
2017-11-17T07:24:47.309Z,99.90
2017-11-17T07:27:14.901Z,99.90
2017-11-17T07:29:43.269Z,99.90
2017-11-17T07:32:10.864Z,99.90
2017-11-17T07:34:38.433Z,99.90
2017-11-17T07:37:06.066Z,99.90
2017-11-17T07:39:33.721Z,99.90
2017-11-17T07:42:01.310Z,99.90
2017-11-17T07:44:28.933Z,99.90
2017-11-17T07:46:56.517Z,99.90
2017-11-17T07:49:24.852Z,99.90
2017-11-17T07:51:52.441Z,99.90
2017-11-17T07:54:20.002Z,99.90
2017-11-17T07:56:48.373Z,99.90
2017-11-17T07:59:15.943Z,99.90
2017-11-17T08:01:43.529Z,99.90
2017-11-17T08:04:11.159Z,99.90
2017-11-17T08:06:38.757Z,99.90
2017-11-17T08:09:06.354Z,99.90
2017-11-17T08:11:33.985Z,99.90
2017-11-17T08:14:01.544Z,99.90
2017-11-17T08:16:29.132Z,99.90
2017-11-17T08:18:56.729Z,99.90
2017-11-17T08:21:24.601Z,99.90
2017-11-17T08:23:52.170Z,99.90
2017-11-17T08:26:20.501Z,99.90
2017-11-17T08:28:48.089Z,99.90
2017-11-17T08:31:15.653Z,99.90
2017-11-17T08:33:43.244Z,99.90
2017-11-17T08:36:11.577Z,99.90
2017-11-17T08:38:39.175Z,99.90
2017-11-17T08:41:07.505Z,99.90
2017-11-17T08:43:35.088Z,99.90
2017-11-17T08:46:02.662Z,99.90
2017-11-17T08:48:32.262Z,99.90
2017-11-17T08:50:59.822Z,99.90
2017-11-17T08:53:27.401Z,99.90
2017-11-17T08:55:55.825Z,99.90
2017-11-17T08:58:23.393Z,99.90
2017-11-17T09:00:51.097Z,99.90
2017-11-17T09:03:18.676Z,99.90
2017-11-17T09:05:47.037Z,99.90
2017-11-17T09:08:14.601Z,99.90
2017-11-17T09:10:42.962Z,99.90
2017-11-17T09:13:10.637Z,99.90
2017-11-17T09:15:38.235Z,99.90
2017-11-17T09:18:05.854Z,99.90
2017-11-17T09:20:33.841Z,99.90
2017-11-17T09:23:02.181Z,99.90
2017-11-17T09:25:29.780Z,99.90
2017-11-17T09:27:58.117Z,99.90
2017-11-17T09:30:25.713Z,99.90
2017-11-17T09:32:53.374Z,99.90
2017-11-17T09:35:20.970Z,99.90
2017-11-17T09:37:48.533Z,99.90
2017-11-17T09:40:16.253Z,99.90
2017-11-17T09:42:43.921Z,99.90
2017-11-17T09:45:12.257Z,99.90
2017-11-17T09:47:39.850Z,99.90
2017-11-17T09:50:07.450Z,99.90
2017-11-17T09:52:35.053Z,99.90
2017-11-17T09:55:02.625Z,99.90
2017-11-17T09:57:32.656Z,99.90
2017-11-17T10:00:00.382Z,99.90
2017-11-17T10:02:27.985Z,99.90
2017-11-17T10:04:55.558Z,99.90
2017-11-17T10:07:23.925Z,99.90
2017-11-17T10:09:52.253Z,99.90
2017-11-17T10:12:19.861Z,99.90
2017-11-17T10:14:48.276Z,99.90
2017-11-17T10:17:15.904Z,99.90
2017-11-17T10:19:43.570Z,99.90
2017-11-17T10:22:11.230Z,99.90
2017-11-17T10:24:38.898Z,99.90
2017-11-17T10:27:06.502Z,99.90
2017-11-17T10:29:34.094Z,99.90
2017-11-17T10:32:01.682Z,99.90
2017-11-17T10:34:31.193Z,99.90
2017-11-17T10:36:59.528Z,99.90
2017-11-17T10:39:27.117Z,99.90
2017-11-17T10:41:55.074Z,99.90
2017-11-17T10:44:22.941Z,99.90
2017-11-17T10:46:52.041Z,99.90
2017-11-17T10:49:19.818Z,99.90
2017-11-17T10:51:47.385Z,99.90
2017-11-17T10:54:15.289Z,99.90
2017-11-17T10:56:42.880Z,99.90
2017-11-17T10:59:16.267Z,99.90
2017-11-17T11:01:43.869Z,99.90
2017-11-17T11:04:13.910Z,93.30
2017-11-17T11:06:42.270Z,65.60
2017-11-17T11:09:10.649Z,80.70
2017-11-17T11:11:44.578Z,77.80
2017-11-17T11:14:12.153Z,77.60
2017-11-17T11:16:40.066Z,43.30
2017-11-17T11:19:07.744Z,48.40
2017-11-17T11:21:35.313Z,42.30
2017-11-17T11:24:03.673Z,44.30
2017-11-17T11:26:31.801Z,44.10
2017-11-17T11:28:59.422Z,48.10
2017-11-17T11:31:26.988Z,77.40
2017-11-17T11:33:55.369Z,73.80
2017-11-17T11:36:23.701Z,69.80
2017-11-17T11:38:51.272Z,71.10
2017-11-17T11:41:18.860Z,75.80
2017-11-17T11:43:46.529Z,92.00
2017-11-17T11:46:14.129Z,90.40
2017-11-17T11:48:41.692Z,74.40
2017-11-17T11:51:09.289Z,83.30
2017-11-17T11:53:36.862Z,94.20
2017-11-17T11:56:05.973Z,99.90
2017-11-17T11:58:34.733Z,99.70
2017-11-17T12:01:02.353Z,99.70
2017-11-17T12:03:30.044Z,96.00
2017-11-17T12:05:57.645Z,92.10
2017-11-17T12:08:25.301Z,56.60
2017-11-17T12:10:52.925Z,47.10
2017-11-17T12:13:20.691Z,40.10
2017-11-17T12:15:48.350Z,34.90
2017-11-17T12:18:15.912Z,29.60
2017-11-17T12:20:43.633Z,30.00
2017-11-17T12:23:11.973Z,28.30
2017-11-17T12:25:39.677Z,28.20
2017-11-17T12:28:08.325Z,27.50
2017-11-17T12:30:35.906Z,27.40
2017-11-17T12:33:03.634Z,28.30
2017-11-17T12:35:33.566Z,24.20
2017-11-17T12:38:01.313Z,24.20
2017-11-17T12:40:28.881Z,27.00
2017-11-17T12:42:56.546Z,27.50
2017-11-17T12:45:24.122Z,28.40
2017-11-17T12:47:51.736Z,28.30
2017-11-17T12:50:19.357Z,28.80
2017-11-17T12:52:47.017Z,28.90
2017-11-17T12:55:14.738Z,27.80
2017-11-17T12:57:42.785Z,28.50
2017-11-17T13:00:11.143Z,30.90
2017-11-17T13:02:39.501Z,32.00
2017-11-17T13:05:07.185Z,31.90
2017-11-17T13:07:34.753Z,32.50
2017-11-17T13:10:03.093Z,40.50
2017-11-17T13:12:31.983Z,40.50
2017-11-17T13:14:59.573Z,53.50
2017-11-17T13:17:28.669Z,55.80
2017-11-17T13:19:56.235Z,55.50
2017-11-17T13:22:23.852Z,67.10
2017-11-17T13:24:51.421Z,76.60
2017-11-17T13:27:19.042Z,89.00
2017-11-17T13:29:46.608Z,95.00
2017-11-17T13:32:14.260Z,96.30
2017-11-17T13:34:42.752Z,74.30
2017-11-17T13:37:10.346Z,74.40
2017-11-17T13:39:38.066Z,85.90
2017-11-17T13:42:05.773Z,94.00
2017-11-17T13:44:33.781Z,98.60
2017-11-17T13:47:01.362Z,99.90
2017-11-17T13:49:29.787Z,99.90
2017-11-17T13:51:57.361Z,99.90
2017-11-17T13:54:24.981Z,99.90
2017-11-17T13:56:52.565Z,99.90
2017-11-17T13:59:20.165Z,99.90
2017-11-17T14:01:48.654Z,99.90
2017-11-17T14:04:16.985Z,99.90
2017-11-17T14:06:44.573Z,99.90
2017-11-17T14:09:12.137Z,99.90
2017-11-17T14:11:39.730Z,99.90
2017-11-17T14:14:08.369Z,99.90
2017-11-17T14:16:35.952Z,99.90
2017-11-17T14:19:03.527Z,99.90
2017-11-17T14:21:32.061Z,99.90
2017-11-17T14:23:59.617Z,99.90
2017-11-17T14:26:27.209Z,99.90
2017-11-17T14:28:55.601Z,99.90
2017-11-17T14:31:24.754Z,99.90
2017-11-17T14:33:52.325Z,99.90
2017-11-17T14:36:20.262Z,99.90
2017-11-17T14:38:47.826Z,99.90
2017-11-17T14:41:15.605Z,99.90
2017-11-17T14:43:43.196Z,99.90
2017-11-17T14:46:11.573Z,99.90
2017-11-17T14:48:39.169Z,99.90
2017-11-17T14:51:07.529Z,99.90
2017-11-17T14:53:35.120Z,99.90
2017-11-17T14:56:03.453Z,99.90
2017-11-17T14:58:31.993Z,99.90
2017-11-17T15:00:59.557Z,99.90
2017-11-17T15:03:27.286Z,99.90
2017-11-17T15:05:55.630Z,99.90
2017-11-17T15:08:23.205Z,99.90
2017-11-17T15:10:50.798Z,99.90
2017-11-17T15:13:19.154Z,99.90
2017-11-17T15:15:47.017Z,99.90
2017-11-17T15:18:14.981Z,99.90
2017-11-17T15:20:42.657Z,99.90
2017-11-17T15:23:10.217Z,99.90
2017-11-17T15:25:37.821Z,99.90
2017-11-17T15:28:05.445Z,99.90
2017-11-17T15:30:34.620Z,99.90
2017-11-17T15:33:02.184Z,99.90
2017-11-17T15:35:29.769Z,99.90
2017-11-17T15:37:57.338Z,99.90
2017-11-17T15:40:25.906Z,99.90
2017-11-17T15:42:53.464Z,99.90
2017-11-17T15:45:21.026Z,99.90
2017-11-17T15:47:48.613Z,99.90
2017-11-17T15:50:16.937Z,99.90
2017-11-17T15:52:44.561Z,99.90
2017-11-17T15:55:12.166Z,99.90
2017-11-17T15:57:39.781Z,99.90
2017-11-17T16:00:07.375Z,99.90
2017-11-17T16:02:34.978Z,99.90
2017-11-17T16:05:02.558Z,99.90
2017-11-17T16:07:31.082Z,99.90
2017-11-17T16:09:58.657Z,99.90
2017-11-17T16:12:26.261Z,99.90
2017-11-17T16:14:54.617Z,99.90
2017-11-17T16:17:22.295Z,99.90
2017-11-17T16:19:50.630Z,99.90
2017-11-17T16:22:18.246Z,99.90
2017-11-17T16:24:46.573Z,99.90
2017-11-17T16:27:14.173Z,99.90
2017-11-17T16:29:41.762Z,99.90
2017-11-17T16:32:09.717Z,99.90
2017-11-17T16:34:38.117Z,99.90
2017-11-17T16:37:05.826Z,99.90
2017-11-17T16:39:34.712Z,99.90
2017-11-17T16:42:02.309Z,99.90
2017-11-17T16:44:32.214Z,99.90
2017-11-17T16:47:00.545Z,99.90
2017-11-17T16:49:28.140Z,99.90
2017-11-17T16:51:56.034Z,99.90
2017-11-17T16:54:24.393Z,99.90
2017-11-17T16:56:51.965Z,99.90
2017-11-17T16:59:20.413Z,99.90
2017-11-17T17:01:47.993Z,99.90
2017-11-17T17:04:15.578Z,99.90
2017-11-17T17:06:43.945Z,99.90
2017-11-17T17:09:12.275Z,99.90
2017-11-17T17:11:39.877Z,99.90
2017-11-17T17:14:07.441Z,99.90
2017-11-17T17:16:35.037Z,99.90
2017-11-17T17:19:02.601Z,99.90
2017-11-17T17:21:30.964Z,99.90
2017-11-17T17:23:58.525Z,99.90
2017-11-17T17:26:26.111Z,99.90
2017-11-17T17:28:53.676Z,99.90
2017-11-17T17:31:21.243Z,99.90
2017-11-17T17:33:48.864Z,99.90
2017-11-17T17:36:17.218Z,99.90
2017-11-17T17:38:44.804Z,99.90
2017-11-17T17:41:13.134Z,99.90
2017-11-17T17:43:40.740Z,99.90
2017-11-17T17:46:09.077Z,99.90
2017-11-17T17:48:36.822Z,99.90
2017-11-17T17:51:04.397Z,99.90
2017-11-17T17:53:32.765Z,99.90
2017-11-17T17:56:00.365Z,99.90
2017-11-17T17:58:28.697Z,99.90
2017-11-17T18:00:56.289Z,99.90
2017-11-17T18:03:23.858Z,99.90
2017-11-17T18:05:51.459Z,99.90
2017-11-17T18:08:19.046Z,99.90
2017-11-17T18:10:46.638Z,99.90
2017-11-17T18:13:14.206Z,99.90
2017-11-17T18:15:41.800Z,99.90
2017-11-17T18:18:09.387Z,99.90
2017-11-17T18:20:36.977Z,99.90
2017-11-17T18:23:04.549Z,99.90
2017-11-17T18:25:34.909Z,99.90
2017-11-17T18:28:03.310Z,99.90
2017-11-17T18:30:31.403Z,99.90
2017-11-17T18:32:58.964Z,99.90
2017-11-17T18:35:26.525Z,99.90
2017-11-17T18:37:54.194Z,99.90
2017-11-17T18:40:21.733Z,99.90
2017-11-17T18:42:49.352Z,99.90
2017-11-17T18:45:17.720Z,99.90
2017-11-17T18:47:45.314Z,99.90
2017-11-17T18:50:12.903Z,99.90
2017-11-17T18:52:40.502Z,99.90
2017-11-17T18:55:08.883Z,99.90
2017-11-17T18:57:36.500Z,99.90
2017-11-17T19:00:04.099Z,99.90
2017-11-17T19:02:32.860Z,99.90
2017-11-17T19:05:01.150Z,99.90
2017-11-17T19:07:28.821Z,99.90
2017-11-17T19:09:56.481Z,99.90
2017-11-17T19:12:24.025Z,99.90
2017-11-17T19:14:51.662Z,99.90
2017-11-17T19:17:19.973Z,99.90
2017-11-17T19:19:47.561Z,99.90
2017-11-17T19:22:15.134Z,99.90
2017-11-17T19:24:44.424Z,99.90
2017-11-17T19:27:12.765Z,99.90
2017-11-17T19:29:40.370Z,99.90
2017-11-17T19:32:08.714Z,99.90
2017-11-17T19:34:36.306Z,99.90
2017-11-17T19:37:04.674Z,99.90
2017-11-17T19:39:34.145Z,99.90
2017-11-17T19:42:01.726Z,99.90
2017-11-17T19:44:29.293Z,99.90
2017-11-17T19:46:56.889Z,99.90
2017-11-17T19:49:25.310Z,99.90
2017-11-17T19:51:52.907Z,99.90
2017-11-17T19:54:21.135Z,99.90
2017-11-17T19:56:48.776Z,99.90
2017-11-17T19:59:16.457Z,99.90
2017-11-17T20:01:44.045Z,99.90
2017-11-17T20:04:11.664Z,99.90
2017-11-17T20:06:39.258Z,99.90
2017-11-17T20:09:06.885Z,99.90
2017-11-17T20:11:34.529Z,99.90
2017-11-17T20:14:02.860Z,99.90
2017-11-17T20:16:33.094Z,99.90
2017-11-17T20:19:00.665Z,99.90
2017-11-17T20:21:29.771Z,99.90
2017-11-17T20:23:57.353Z,99.90
2017-11-17T20:26:25.743Z,99.90
2017-11-17T20:28:53.314Z,99.90
2017-11-17T20:31:20.928Z,99.90
2017-11-17T20:33:48.574Z,99.90
2017-11-17T20:36:16.138Z,99.90
2017-11-17T20:38:43.787Z,99.90
2017-11-17T20:41:11.386Z,99.90
2017-11-17T20:43:38.977Z,99.90
2017-11-17T20:46:06.544Z,99.90
2017-11-17T20:48:34.133Z,99.90
2017-11-17T20:51:01.725Z,99.90
2017-11-17T20:53:29.314Z,99.90
2017-11-17T20:55:57.651Z,99.90
2017-11-17T20:58:27.045Z,99.90
2017-11-17T21:00:54.670Z,99.90
2017-11-17T21:03:22.289Z,99.90
2017-11-17T21:05:49.904Z,99.90
2017-11-17T21:08:17.497Z,99.90
2017-11-17T21:10:45.121Z,99.90
2017-11-17T21:13:12.685Z,99.90
2017-11-17T21:15:40.325Z,99.90
2017-11-17T21:18:08.670Z,99.90
2017-11-17T21:20:37.029Z,99.90
2017-11-17T21:23:04.619Z,99.90
2017-11-17T21:25:34.653Z,99.90
2017-11-17T21:28:02.990Z,99.90
2017-11-17T21:30:32.816Z,99.90
2017-11-17T21:33:00.377Z,99.90
2017-11-17T21:35:27.965Z,99.90
2017-11-17T21:37:56.293Z,99.90
2017-11-17T21:40:23.904Z,99.90
2017-11-17T21:42:52.329Z,99.90
2017-11-17T21:45:19.902Z,99.90
2017-11-17T21:47:47.491Z,99.90
2017-11-17T21:50:15.057Z,99.90
2017-11-17T21:52:42.649Z,99.90
2017-11-17T21:55:10.217Z,99.90
2017-11-17T21:57:37.809Z,99.90
2017-11-17T22:00:05.381Z,99.90
2017-11-17T22:02:34.489Z,99.90
2017-11-17T22:05:02.820Z,99.90
2017-11-17T22:07:32.100Z,99.90
2017-11-17T22:09:59.661Z,99.90
2017-11-17T22:12:27.246Z,99.90
2017-11-17T22:14:54.812Z,99.90
2017-11-17T22:17:22.405Z,99.90
2017-11-17T22:19:49.968Z,99.90
2017-11-17T22:22:17.557Z,99.90
2017-11-17T22:24:45.885Z,99.90
2017-11-17T22:27:13.469Z,99.90
2017-11-17T22:29:41.041Z,99.90
2017-11-17T22:32:08.624Z,99.90
2017-11-17T22:34:36.957Z,99.90
2017-11-17T22:37:04.545Z,99.90
2017-11-17T22:39:33.075Z,99.90
2017-11-17T22:42:00.661Z,99.90
2017-11-17T22:44:28.234Z,99.90
2017-11-17T22:46:55.829Z,99.90
2017-11-17T22:49:23.393Z,99.90
2017-11-17T22:51:50.982Z,99.90
2017-11-17T22:54:18.545Z,99.90
2017-11-17T22:56:46.133Z,99.90
2017-11-17T22:59:13.705Z,99.90
2017-11-17T23:01:41.299Z,99.90
2017-11-17T23:04:08.865Z,99.90
2017-11-17T23:06:36.458Z,99.90
2017-11-17T23:09:04.030Z,99.90
2017-11-17T23:11:32.932Z,99.90
2017-11-17T23:14:00.549Z,99.90
2017-11-17T23:16:28.115Z,99.90
2017-11-17T23:18:55.708Z,99.90
2017-11-17T23:21:23.334Z,99.90
2017-11-17T23:23:50.921Z,99.90
2017-11-17T23:26:18.490Z,99.90
2017-11-17T23:28:46.087Z,99.90
2017-11-17T23:31:13.685Z,99.90
2017-11-17T23:33:41.269Z,99.90
2017-11-17T23:36:09.134Z,99.90
2017-11-17T23:38:36.724Z,99.90
2017-11-17T23:41:04.286Z,99.90
2017-11-17T23:43:33.562Z,99.90
2017-11-17T23:46:01.126Z,99.90
2017-11-17T23:48:28.713Z,99.90
2017-11-17T23:50:56.305Z,99.90
2017-11-17T23:53:23.906Z,99.90
2017-11-17T23:55:51.468Z,99.90
2017-11-17T23:58:19.057Z,99.90
